Balko, OK (73931)

2:04 AM CDT on July 29, 2014 (GMT -0500)
Zender Laundromat (KTXBOOKE2) Elev 2844 ft | 36.45 °N, 100.54 °W | Change Station

Current weather conditions updated 1 second ago

Overcast
Overcast
68.7 °F
Feels Like 68.7 °F
N
1.6
Wind Variable Wind from SSE
Gusts 3.8 mph

Today is forecast to be nearly the same temperature as yesterday. Scattered thunderstorms possible.

Today
High -- | Low -- °F
--% Chance of Precip.
Yesterday
High -- | Low -- °F
Precip. -- in
6:46 AM 8:51 PM
Waxing Crescent, 5% visible
Pressure 30.25 in
Visibility 10.0 miles
Clouds Mostly Cloudy 9000 ft
Overcast 11000 ft
Dew Point 64 °F
Humidity 84%
Rainfall 0.00 in
Snow Depth Not available.
UV 0 out of 12
Pollen 6.30 out of 12
Air Quality Not available.
Flu Activity Not available.
METAR KPYX 290655Z AUTO 17005KT 10SM BKN090 OVC110 20/16 A3025 RMK AO2 T02010162

More Conditions Fewer Conditions

Pressure 30.25 in
Visibility 10.0 miles
Clouds Mostly Cloudy 9000 ft
Overcast 11000 ft
Dew Point 64 °F
Humidity 84%
Rainfall 0.00 in
Snow Depth Not available.
UV 0 out of 12
Pollen 6.30 out of 12
Air Quality Not available.
Flu Activity Not available.
METAR KPYX 290655Z AUTO 17005KT 10SM BKN090 OVC110 20/16 A3025 RMK AO2 T02010162

More Conditions Fewer Conditions

10-Day Weather Forecast

Almanac

Astronomy

Jul. 29, 2014 Rise Set
Actual Time 6:46 AM CDT 8:51 PM CDT
Civil Twilight 6:17 AM CDT 9:20 PM CDT
Nautical Twilight 5:42 AM CDT 9:55 PM CDT
Astronomical Twilight 5:04 AM CDT 10:32 PM CDT
Moon 9:18 AM CDT 10:11 PM CDT
Length of Visible Light 15h 02m
Length of Day
14h 04m
Tomorrow will be 1m 40s shorter.
Waxing Crescent, 5% of the Moon is Illuminated
Today
Waxing Crescent
Aug 3
First Quarter
Aug 10
Full
Aug 17
Last Quarter
Aug 25
New

Today's Extremes

State Highs State Lows

Community

WunderPhotos

Upload Photos

1,738,651 photos uploaded!

Nearby

Snow Depth

Station Depth Elevation
No new snow has been reported.

Earthquake Activity

City Distance Mag. Time & Date
No recent earthquake activity has been reported nearby.
Minimum magnitude displayed is 2.5.

Coastal Water Temperatures

Place Temperature
No Stations Reporting

Nearby Weather Stations

Station Location Temp. Dew Point Humidity Wind Precip. Elev Updated Type
Zender Laundromat, Booker, TX 68.7 °F 64 °F 84% SSE  at  1.6 mph 0.00 in / hr 2844 ft 2:04 AM CDT Rapid Fire
Perryton, TX 66.0 °F 63 °F 90% SSE  at  4.0 mph 0.00 in / hr 2940 ft 2:04 AM CDT Rapid Fire

Show More Stations Show Fewer Stations